Time;durP1;ratioP1;P1;durP2;ratioP2;P2;SDS_P1;SDS_P2;PMS_P1;PMS_P2;Temp;Humidity;BMP_temperature;BMP_pressure;BME280_temperature;BME280_humidity;BME280_pressure;Samples;Min_cycle;Max_cycle;Signal;HPM_P1;HPM_P2
2023/08/06 00:00:28;;;;;;;;;;;;;;;22.21;100.00;98544.84;5072989;28;830;-66
2023/08/06 00:02:54;;;;;;;;;;;;;;;22.16;100.00;98547.66;5072881;28;885;-66
2023/08/06 00:05:21;;;;;;;;;;;;;;;22.11;100.00;98551.25;5072899;28;807;-66
2023/08/06 00:07:49;;;;;;;;;;;;;;;22.04;100.00;98541.28;5073188;28;861;-66
2023/08/06 00:10:16;;;;;;;;;;;;;;;21.96;100.00;98540.25;5072823;28;919;-66
2023/08/06 00:12:43;;;;;;;;;;;;;;;21.90;100.00;98529.00;5072622;28;1874;-65
2023/08/06 00:15:11;;;;;;;;;;;;;;;21.87;100.00;98534.88;5072671;28;921;-65
2023/08/06 00:17:38;;;;;;;;;;;;;;;21.85;100.00;98537.41;5056259;28;850;-66
2023/08/06 00:20:06;;;;;;;;;;;;;;;21.84;100.00;98536.66;5052698;28;866;-65
2023/08/06 00:22:37;;;;;;;;;;;;;;;21.88;100.00;98530.78;5034743;28;1292;-65
2023/08/06 00:25:04;;;;;;;;;;;;;;;21.93;100.00;98525.16;5052709;28;815;-66
2023/08/06 00:27:32;;;;;;;;;;;;;;;21.98;100.00;98520.81;5052687;28;822;-66
2023/08/06 00:29:59;;;;;;;;;;;;;;;21.96;100.00;98514.94;5034532;28;1340;-66
2023/08/06 00:32:26;;;;;;;;;;;;;;;21.92;100.00;98518.00;5052277;28;1878;-66
2023/08/06 00:34:53;;;;;;;;;;;;;;;21.88;100.00;98513.91;5052428;28;890;-66
2023/08/06 00:37:20;;;;;;;;;;;;;;;21.82;100.00;98509.03;5052716;28;832;-66
2023/08/06 00:39:47;;;;;;;;;;;;;;;21.77;100.00;98497.81;5052228;28;811;-66
2023/08/06 00:42:16;;;;;;;;;;;;;;;21.73;100.00;98497.28;5052385;28;846;-66
2023/08/06 00:44:42;;;;;;;;;;;;;;;21.68;100.00;98496.03;5052112;28;896;-66
2023/08/06 00:47:09;;;;;;;;;;;;;;;21.65;100.00;98499.06;5052381;28;946;-66
2023/08/06 00:49:36;;;;;;;;;;;;;;;21.59;100.00;98504.69;5052036;28;1455;-65
2023/08/06 00:52:04;;;;;;;;;;;;;;;21.56;100.00;98502.91;5051985;28;1914;-65
2023/08/06 00:54:32;;;;;;;;;;;;;;;21.53;100.00;98503.91;5052149;28;818;-65
2023/08/06 00:57:00;;;;;;;;;;;;;;;21.52;100.00;98505.97;5052170;28;890;-65
2023/08/06 00:59:27;;;;;;;;;;;;;;;21.52;100.00;98510.81;5051965;28;909;-65
2023/08/06 01:01:53;;;;;;;;;;;;;;;21.47;100.00;98500.34;5051932;28;998;-65
2023/08/06 01:04:20;;;;;;;;;;;;;;;21.39;100.00;98494.41;5052196;28;874;-65
2023/08/06 01:06:56;;;;;;;;;;;;;;;21.34;100.00;98490.34;5034110;28;1422;-65
2023/08/06 01:09:38;;;;;;;;;;;;;;;21.27;100.00;98484.44;5051955;28;858;-65
2023/08/06 01:12:31;;;;;;;;;;;;;;;21.19;100.00;98476.50;5051849;28;1905;-65
2023/08/06 01:15:02;;;;;;;;;;;;;;;21.14;100.00;98466.00;5051796;28;851;-65
2023/08/06 01:17:29;;;;;;;;;;;;;;;21.13;100.00;98460.94;5051792;28;858;-65
2023/08/06 01:19:56;;;;;;;;;;;;;;;21.08;100.00;98451.22;5051717;28;902;-66
2023/08/06 01:22:23;;;;;;;;;;;;;;;21.07;100.00;98446.09;5051724;28;826;-65
2023/08/06 01:24:51;;;;;;;;;;;;;;;21.06;100.00;98441.75;5051715;28;827;-66
2023/08/06 01:27:27;;;;;;;;;;;;;;;21.10;100.00;98433.84;5051589;28;816;-65
2023/08/06 01:30:05;;;;;;;;;;;;;;;21.16;100.00;98435.38;5051724;28;834;-65
2023/08/06 01:32:35;;;;;;;;;;;;;;;21.20;100.00;98430.28;5055408;28;1949;-65
2023/08/06 01:35:03;;;;;;;;;;;;;;;21.26;100.00;98415.47;5037899;28;1371;-65
2023/08/06 01:37:31;;;;;;;;;;;;;;;21.28;100.00;98424.94;5055955;28;822;-65
2023/08/06 01:39:58;;;;;;;;;;;;;;;21.28;100.00;98421.34;5055847;28;882;-65
2023/08/06 01:42:25;;;;;;;;;;;;;;;21.26;100.00;98416.25;5055890;28;948;-65
2023/08/06 01:44:52;;;;;;;;;;;;;;;21.28;100.00;98410.88;5055788;28;811;-65
2023/08/06 01:47:19;;;;;;;;;;;;;;;21.32;100.00;98407.81;5055921;28;964;-65
2023/08/06 01:49:47;;;;;;;;;;;;;;;21.34;100.00;98416.50;5055512;28;1283;-65
2023/08/06 01:52:14;;;;;;;;;;;;;;;21.33;100.00;98406.53;5055418;28;1910;-65
2023/08/06 01:54:41;;;;;;;;;;;;;;;21.31;100.00;98407.03;5055500;28;893;-65
2023/08/06 01:57:09;;;;;;;;;;;;;;;21.26;100.00;98399.38;5055421;28;830;-65
2023/08/06 01:59:36;;;;;;;;;;;;;;;21.22;100.00;98404.47;5055595;28;831;-65
2023/08/06 02:02:03;;;;;;;;;;;;;;;21.13;100.00;98413.94;5055190;28;878;-66
2023/08/06 02:04:30;;;;;;;;;;;;;;;21.04;100.00;98407.78;5055323;28;795;-65
2023/08/06 02:06:55;;;;;;;;;;;;;;;21.00;100.00;98406.00;5055175;28;872;-65
2023/08/06 02:09:22;;;;;;;;;;;;;;;21.02;100.00;98419.53;5055414;28;819;-65
2023/08/06 02:11:49;;;;;;;;;;;;;;;21.07;100.00;98420.81;5055210;28;1955;-65
2023/08/06 02:14:16;;;;;;;;;;;;;;;21.04;100.00;98419.78;5055319;28;866;-65
2023/08/06 02:16:42;;;;;;;;;;;;;;;21.00;100.00;98419.28;5055592;28;877;-65
2023/08/06 02:19:09;;;;;;;;;;;;;;;20.96;100.00;98413.13;5055233;28;921;-65
2023/08/06 02:21:36;;;;;;;;;;;;;;;20.94;100.00;98410.81;5055069;28;890;-65
2023/08/06 02:24:03;;;;;;;;;;;;;;;20.93;100.00;98423.34;5055292;28;851;-65
2023/08/06 02:26:30;;;;;;;;;;;;;;;20.96;100.00;98415.94;5054982;28;849;-65
2023/08/06 02:28:57;;;;;;;;;;;;;;;21.03;100.00;98421.06;5055072;28;827;-65
2023/08/06 02:31:24;;;;;;;;;;;;;;;21.06;100.00;98419.25;5054755;28;1887;-65
2023/08/06 02:33:51;;;;;;;;;;;;;;;21.08;100.00;98423.13;5055246;28;799;-65
2023/08/06 02:36:19;;;;;;;;;;;;;;;21.09;100.00;98421.06;5055049;28;896;-65
2023/08/06 02:38:46;;;;;;;;;;;;;;;21.05;100.00;98415.69;5054817;28;834;-65
2023/08/06 02:41:13;;;;;;;;;;;;;;;20.97;100.00;98407.03;5054755;28;817;-65
2023/08/06 02:43:40;;;;;;;;;;;;;;;20.91;100.00;98403.44;5054550;28;969;-65
2023/08/06 02:46:07;;;;;;;;;;;;;;;20.89;100.00;98391.94;5054624;28;893;-65
2023/08/06 02:48:33;;;;;;;;;;;;;;;20.88;100.00;98400.88;5054657;28;1212;-65
2023/08/06 02:51:00;;;;;;;;;;;;;;;20.90;100.00;98410.31;5054655;28;1910;-65
2023/08/06 02:53:28;;;;;;;;;;;;;;;20.95;100.00;98409.56;5054534;28;837;-65
2023/08/06 02:55:55;;;;;;;;;;;;;;;21.10;100.00;98414.97;5054445;28;956;-65
2023/08/06 02:58:23;;;;;;;;;;;;;;;21.29;100.00;98414.44;5054355;28;949;-65
2023/08/06 03:01:00;;;;;;;;;;;;;;;21.47;100.00;98416.03;5054069;28;818;-65
2023/08/06 03:03:27;;;;;;;;;;;;;;;21.64;100.00;98413.97;5036354;28;827;-65
2023/08/06 03:05:54;;;;;;;;;;;;;;;21.77;100.00;98419.06;5054219;28;863;-65
2023/08/06 03:08:22;;;;;;;;;;;;;;;21.87;100.00;98417.53;5054134;28;834;-65
2023/08/06 03:10:49;;;;;;;;;;;;;;;21.97;100.00;98415.19;5053907;28;1885;-65
2023/08/06 03:13:19;;;;;;;;;;;;;;;22.02;100.00;98423.63;5053984;28;894;-65
2023/08/06 03:15:56;;;;;;;;;;;;;;;22.05;100.00;98421.84;5053874;28;855;-65
2023/08/06 03:18:25;;;;;;;;;;;;;;;22.09;100.00;98418.75;5054023;28;783;-66
2023/08/06 03:20:53;;;;;;;;;;;;;;;22.14;100.00;98423.59;5053800;28;837;-65
2023/08/06 03:23:20;;;;;;;;;;;;;;;22.20;100.00;98427.16;5054115;28;803;-65
2023/08/06 03:25:47;;;;;;;;;;;;;;;22.28;100.00;98414.13;5053744;28;779;-65
2023/08/06 03:28:14;;;;;;;;;;;;;;;22.34;100.00;98412.06;5053651;28;895;-65
2023/08/06 03:30:41;;;;;;;;;;;;;;;22.39;100.00;98405.63;5053703;28;1890;-65
2023/08/06 03:33:08;;;;;;;;;;;;;;;22.47;100.00;98405.88;5053724;28;830;-65
2023/08/06 03:35:35;;;;;;;;;;;;;;;22.53;100.00;98398.16;5053595;28;878;-65
2023/08/06 03:38:00;;;;;;;;;;;;;;;22.62;100.00;98403.50;5053488;28;803;-65
2023/08/06 03:40:27;;;;;;;;;;;;;;;22.70;100.00;98402.94;5053487;28;838;-65
2023/08/06 03:42:54;;;;;;;;;;;;;;;22.75;100.00;98399.34;5053352;28;868;-65
2023/08/06 03:45:21;;;;;;;;;;;;;;;22.76;100.00;98398.78;5035662;28;1389;-65
2023/08/06 03:47:48;;;;;;;;;;;;;;;22.83;100.00;98389.81;5053685;28;1063;-65
2023/08/06 03:50:15;;;;;;;;;;;;;;;22.98;100.00;98391.50;5053071;28;1192;-65
2023/08/06 03:52:42;;;;;;;;;;;;;;;23.11;100.00;98386.06;5053159;28;1918;-66
2023/08/06 03:55:09;;;;;;;;;;;;;;;23.15;100.00;98389.38;5052696;28;822;-65
2023/08/06 03:57:36;;;;;;;;;;;;;;;23.13;100.00;98386.31;5053056;28;886;-65
2023/08/06 04:00:03;;;;;;;;;;;;;;;23.10;100.00;98378.88;5053040;28;898;-66
2023/08/06 04:02:30;;;;;;;;;;;;;;;23.14;100.00;98372.97;5053031;28;897;-65
2023/08/06 04:04:59;;;;;;;;;;;;;;;23.35;100.00;98364.88;5053045;28;897;-66
2023/08/06 04:07:26;;;;;;;;;;;;;;;23.58;100.00;98371.09;5052929;28;819;-65
2023/08/06 04:09:59;;;;;;;;;;;;;;;23.67;100.00;98372.78;5052905;28;850;-65
2023/08/06 04:12:26;;;;;;;;;;;;;;;23.68;100.00;98372.25;5052768;28;1898;-65
2023/08/06 04:14:54;;;;;;;;;;;;;;;23.73;100.00;98367.88;5052815;28;825;-65
2023/08/06 04:17:21;;;;;;;;;;;;;;;23.78;100.00;98365.00;5052723;28;886;-65
2023/08/06 04:19:50;;;;;;;;;;;;;;;23.88;100.00;98361.84;5052645;28;930;-65
2023/08/06 04:22:17;;;;;;;;;;;;;;;24.01;100.00;98364.78;5052480;28;836;-65
2023/08/06 04:24:44;;;;;;;;;;;;;;;24.15;100.00;98369.19;5052352;28;873;-65
2023/08/06 04:27:12;;;;;;;;;;;;;;;24.25;100.00;98366.78;5052635;28;822;-65
2023/08/06 04:29:39;;;;;;;;;;;;;;;24.32;100.00;98366.19;5052396;28;838;-66
2023/08/06 04:32:08;;;;;;;;;;;;;;;24.39;100.00;98359.94;5052492;28;1889;-65
2023/08/06 04:34:35;;;;;;;;;;;;;;;24.48;100.00;98363.69;5052470;28;1332;-65
2023/08/06 04:37:03;;;;;;;;;;;;;;;24.67;100.00;98367.31;5052637;28;885;-65
2023/08/06 04:39:30;;;;;;;;;;;;;;;24.86;100.00;98356.75;5052443;28;1193;-66
2023/08/06 04:41:59;;;;;;;;;;;;;;;25.11;100.00;98356.63;5052461;28;1153;-67
2023/08/06 04:44:26;;;;;;;;;;;;;;;25.16;100.00;98347.31;5052412;28;834;-66
2023/08/06 04:46:53;;;;;;;;;;;;;;;25.32;100.00;98341.94;5052229;28;1030;-66
2023/08/06 04:49:20;;;;;;;;;;;;;;;25.55;100.00;98348.72;5052047;28;1210;-66
2023/08/06 04:51:48;;;;;;;;;;;;;;;26.04;100.00;98339.84;5052065;28;1971;-66
2023/08/06 04:54:15;;;;;;;;;;;;;;;26.22;100.00;98341.06;5052280;28;815;-66
2023/08/06 04:56:42;;;;;;;;;;;;;;;26.22;100.00;98337.44;5052364;28;843;-67
2023/08/06 04:59:10;;;;;;;;;;;;;;;26.16;100.00;98345.28;5052135;28;850;-66
2023/08/06 05:01:37;;;;;;;;;;;;;;;26.18;100.00;98337.78;5034190;28;1314;-67
2023/08/06 05:04:04;;;;;;;;;;;;;;;26.13;100.00;98338.66;5052033;28;893;-67
2023/08/06 05:06:31;;;;;;;;;;;;;;;26.10;100.00;98330.50;5051078;28;877;-67
2023/08/06 05:08:58;;;;;;;;;;;;;;;26.14;100.00;98337.34;5051935;28;811;-68
2023/08/06 05:11:25;;;;;;;;;;;;;;;26.31;100.00;98333.41;5051854;28;1898;-66
2023/08/06 05:13:52;;;;;;;;;;;;;;;26.26;100.00;98338.63;5051723;28;859;-66
2023/08/06 05:16:19;;;;;;;;;;;;;;;26.23;100.00;98331.25;5051990;28;811;-66
2023/08/06 05:18:45;;;;;;;;;;;;;;;26.24;100.00;98329.16;5051811;28;870;-67
2023/08/06 05:21:12;;;;;;;;;;;;;;;26.30;100.00;98331.88;5052046;28;882;-67
2023/08/06 05:23:39;;;;;;;;;;;;;;;26.26;100.00;98324.47;5051732;28;870;-67
2023/08/06 05:26:06;;;;;;;;;;;;;;;26.37;100.00;98328.38;5051719;28;1035;-67
2023/08/06 05:28:34;;;;;;;;;;;;;;;26.49;100.00;98326.81;5051748;28;819;-67
2023/08/06 05:31:04;;;;;;;;;;;;;;;26.62;100.00;98328.91;5051639;28;1938;-67
2023/08/06 05:33:32;;;;;;;;;;;;;;;26.63;100.00;98324.75;5051647;28;842;-66
2023/08/06 05:35:59;;;;;;;;;;;;;;;26.83;100.00;98321.19;5051637;28;862;-67
2023/08/06 05:38:26;;;;;;;;;;;;;;;27.36;100.00;98319.44;5051694;28;815;-66
2023/08/06 05:40:55;;;;;;;;;;;;;;;27.58;100.00;98326.59;5051596;28;878;-67
2023/08/06 05:43:22;;;;;;;;;;;;;;;27.39;100.00;98321.16;5051611;28;850;-67
2023/08/06 05:45:52;;;;;;;;;;;;;;;27.38;100.00;98323.22;5051718;28;830;-67
2023/08/06 05:48:19;;;;;;;;;;;;;;;27.25;100.00;98331.81;5051665;28;1269;-67
2023/08/06 05:50:46;;;;;;;;;;;;;;;27.12;100.00;98331.84;5050015;28;2015;-67
2023/08/06 05:53:13;;;;;;;;;;;;;;;27.37;100.00;98323.78;5051545;28;830;-66
2023/08/06 05:55:40;;;;;;;;;;;;;;;27.94;100.00;98323.06;5051420;28;905;-67
2023/08/06 05:58:07;;;;;;;;;;;;;;;27.85;100.00;98316.59;5051471;28;854;-67
2023/08/06 06:00:35;;;;;;;;;;;;;;;27.89;100.00;98316.25;5051459;28;833;-66
2023/08/06 06:03:02;;;;;;;;;;;;;;;28.91;100.00;98325.34;5051342;28;884;-67
2023/08/06 06:05:29;;;;;;;;;;;;;;;29.89;100.00;98323.13;5051773;28;814;-67
2023/08/06 06:07:56;;;;;;;;;;;;;;;29.54;100.00;98326.94;5051332;28;882;-67
2023/08/06 06:10:22;;;;;;;;;;;;;;;28.79;100.00;98321.38;5051443;28;866;-67
2023/08/06 06:12:49;;;;;;;;;;;;;;;28.37;100.00;98321.56;5051121;28;1886;-67
2023/08/06 06:15:16;;;;;;;;;;;;;;;29.02;100.00;98333.53;5051237;28;850;-68
2023/08/06 06:17:42;;;;;;;;;;;;;;;30.23;100.00;98335.34;5053782;28;846;-67
2023/08/06 06:20:09;;;;;;;;;;;;;;;31.36;100.00;98333.81;5055007;28;806;-69
2023/08/06 06:22:37;;;;;;;;;;;;;;;31.78;100.00;98353.09;5054992;28;877;-66
2023/08/06 06:25:04;;;;;;;;;;;;;;;31.73;100.00;98343.44;5055071;28;865;-67
2023/08/06 06:27:31;;;;;;;;;;;;;;;30.70;100.00;98362.38;5054781;28;838;-67
2023/08/06 06:29:58;;;;;;;;;;;;;;;29.94;100.00;98355.59;5054809;28;807;-67
2023/08/06 06:32:25;;;;;;;;;;;;;;;29.72;100.00;98357.13;5054793;28;1905;-67
2023/08/06 06:34:54;;;;;;;;;;;;;;;30.10;100.00;98353.44;5054725;28;901;-67
2023/08/06 06:37:21;;;;;;;;;;;;;;;30.55;100.00;98348.94;5054776;28;905;-68
2023/08/06 06:39:48;;;;;;;;;;;;;;;30.29;100.00;98350.94;5054646;28;874;-67
2023/08/06 06:42:15;;;;;;;;;;;;;;;29.97;100.00;98347.97;5054581;28;822;-67
2023/08/06 06:44:42;;;;;;;;;;;;;;;29.73;100.00;98347.25;5054525;28;873;-67
2023/08/06 06:47:07;;;;;;;;;;;;;;;30.33;100.00;98344.84;5054646;28;903;-67
2023/08/06 06:49:34;;;;;;;;;;;;;;;31.52;100.00;98346.66;5054245;28;1228;-67
2023/08/06 06:52:04;;;;;;;;;;;;;;;31.87;100.00;98344.59;5054341;28;1934;-68
2023/08/06 06:54:31;;;;;;;;;;;;;;;31.71;100.00;98344.00;5054345;28;842;-67
2023/08/06 06:56:58;;;;;;;;;;;;;;;32.14;100.00;98338.28;5054227;28;884;-68
2023/08/06 06:59:25;;;;;;;;;;;;;;;31.70;100.00;98331.06;5054250;28;882;-68
2023/08/06 07:01:52;;;;;;;;;;;;;;;30.97;100.00;98325.53;5054345;28;819;-68
2023/08/06 07:04:19;;;;;;;;;;;;;;;30.04;100.00;98324.41;5054086;28;818;-67
2023/08/06 07:06:47;;;;;;;;;;;;;;;29.42;100.00;98320.88;5054249;28;901;-67
2023/08/06 07:09:14;;;;;;;;;;;;;;;29.31;100.00;98307.78;5053993;28;987;-67
2023/08/06 07:11:43;;;;;;;;;;;;;;;31.00;100.00;98312.97;5054068;28;1890;-68
2023/08/06 07:14:10;;;;;;;;;;;;;;;33.09;100.00;98313.00;5053890;28;830;-68
2023/08/06 07:16:37;;;;;;;;;;;;;;;34.46;98.49;98324.72;5054099;28;857;-68
2023/08/06 07:19:05;;;;;;;;;;;;;;;35.21;92.34;98323.66;5053889;28;803;-67
2023/08/06 07:21:32;;;;;;;;;;;;;;;35.84;87.90;98333.00;5053923;28;865;-67
2023/08/06 07:23:59;;;;;;;;;;;;;;;36.18;84.99;98343.22;5053874;28;1192;-69
2023/08/06 07:26:27;;;;;;;;;;;;;;;36.06;83.59;98335.88;5053815;28;878;-68
2023/08/06 07:28:54;;;;;;;;;;;;;;;35.70;80.42;98338.56;5052968;28;1251;-66
2023/08/06 07:31:20;;;;;;;;;;;;;;;36.07;78.75;98338.13;5053686;28;1886;-68
2023/08/06 07:33:48;;;;;;;;;;;;;;;36.55;73.90;98339.09;5053786;28;1557;-67
2023/08/06 07:36:15;;;;;;;;;;;;;;;36.31;73.83;98339.00;5053636;28;1296;-68
2023/08/06 07:38:42;;;;;;;;;;;;;;;36.18;73.17;98337.44;5053748;28;819;-67
2023/08/06 07:41:09;;;;;;;;;;;;;;;36.13;72.21;98314.81;5053684;28;810;-68
2023/08/06 07:43:37;;;;;;;;;;;;;;;36.51;70.21;98310.06;5053704;28;890;-69
2023/08/06 07:46:04;;;;;;;;;;;;;;;36.76;68.96;98316.03;5053508;28;826;-68
2023/08/06 07:48:32;;;;;;;;;;;;;;;36.97;66.21;98311.56;5053129;28;1238;-68
2023/08/06 07:50:59;;;;;;;;;;;;;;;37.13;63.24;98306.09;5053573;28;1981;-67
2023/08/06 07:53:27;;;;;;;;;;;;;;;37.16;62.50;98307.72;5053185;28;893;-69
2023/08/06 07:55:54;;;;;;;;;;;;;;;37.20;60.06;98316.59;5053409;28;830;-67
2023/08/06 07:58:21;;;;;;;;;;;;;;;37.30;58.48;98316.47;5053097;28;885;-67
2023/08/06 08:00:48;;;;;;;;;;;;;;;37.04;58.68;98324.94;5053209;28;830;-67
2023/08/06 08:03:15;;;;;;;;;;;;;;;37.00;58.81;98324.72;5053093;28;858;-68
2023/08/06 08:05:43;;;;;;;;;;;;;;;37.75;57.41;98325.72;5053338;28;894;-68
2023/08/06 08:08:10;;;;;;;;;;;;;;;37.37;57.79;98332.75;5052919;28;894;-70
2023/08/06 08:10:38;;;;;;;;;;;;;;;36.46;60.05;98337.06;5052954;28;863;-69
2023/08/06 08:13:05;;;;;;;;;;;;;;;36.73;60.49;98330.94;5052832;28;1945;-68
2023/08/06 08:15:32;;;;;;;;;;;;;;;37.32;58.64;98322.34;5052791;28;863;-68
2023/08/06 08:18:00;;;;;;;;;;;;;;;37.35;57.54;98321.88;5052915;28;850;-67
2023/08/06 08:20:31;;;;;;;;;;;;;;;37.17;57.76;98312.84;5052722;28;942;-67
2023/08/06 08:23:00;;;;;;;;;;;;;;;36.98;58.24;98321.72;5034887;28;1389;-67
2023/08/06 08:25:27;;;;;;;;;;;;;;;36.87;57.14;98316.66;5052512;28;874;-68
2023/08/06 08:27:55;;;;;;;;;;;;;;;37.34;56.42;98305.19;5052629;28;830;-69
2023/08/06 08:30:22;;;;;;;;;;;;;;;37.52;54.44;98308.44;5052510;28;825;-70
2023/08/06 08:32:49;;;;;;;;;;;;;;;37.55;54.33;98304.31;5052765;28;1882;-69
2023/08/06 08:35:16;;;;;;;;;;;;;;;36.38;55.92;98294.13;5052498;28;825;-70
2023/08/06 08:37:44;;;;;;;;;;;;;;;35.65;58.07;98302.28;5034481;28;1322;-68
2023/08/06 08:40:11;;;;;;;;;;;;;;;36.32;54.91;98288.00;5052313;28;966;-69
2023/08/06 08:42:36;;;;;;;;;;;;;;;36.89;52.13;98291.63;5052240;28;898;-68
2023/08/06 08:45:04;;;;;;;;;;;;;;;36.72;50.49;98289.13;5052655;28;886;-68
2023/08/06 08:47:31;;;;;;;;;;;;;;;35.84;51.06;98298.50;5052507;28;950;-67
2023/08/06 08:50:00;;;;;;;;;;;;;;;35.66;51.05;98291.56;5052106;28;1273;-68
2023/08/06 08:52:30;;;;;;;;;;;;;;;35.90;50.46;98286.69;5052013;28;1973;-68
2023/08/06 08:54:58;;;;;;;;;;;;;;;36.31;49.97;98267.09;5052098;28;839;-68
2023/08/06 08:57:25;;;;;;;;;;;;;;;36.82;48.38;98272.50;5052176;28;854;-68
2023/08/06 08:59:52;;;;;;;;;;;;;;;37.42;45.78;98265.34;5052439;28;859;-67
2023/08/06 09:02:21;;;;;;;;;;;;;;;37.80;42.09;98254.66;5052011;28;811;-68
2023/08/06 09:04:48;;;;;;;;;;;;;;;37.73;38.17;98249.91;5052130;28;838;-67
2023/08/06 09:07:17;;;;;;;;;;;;;;;37.49;40.00;98232.66;5034325;28;1636;-72
2023/08/06 09:09:46;;;;;;;;;;;;;;;37.22;40.35;98241.13;5052159;28;799;-68
2023/08/06 09:12:15;;;;;;;;;;;;;;;36.59;40.94;98232.91;5051953;28;1893;-68
2023/08/06 09:14:42;;;;;;;;;;;;;;;36.85;40.81;98222.31;5051870;28;956;-68
2023/08/06 09:48:37;;;;;;;;;;;;;;;36.25;41.93;98194.06;5228470;23;1875;-56
2023/08/06 09:51:05;;;;;;;;;;;;;;;36.59;40.24;98186.84;5011800;28;1909;-57
2023/08/06 09:53:34;;;;;;;;;;;;;;;36.48;40.58;98176.09;5015828;28;811;-56
2023/08/06 09:56:01;;;;;;;;;;;;;;;35.72;41.57;98172.03;5015799;28;941;-56
2023/08/06 09:58:31;;;;;;;;;;;;;;;35.22;42.96;98180.84;5015744;28;846;-57
2023/08/06 10:00:59;;;;;;;;;;;;;;;35.20;43.42;98169.97;5015977;28;822;-57
2023/08/06 10:03:25;;;;;;;;;;;;;;;35.58;42.52;98168.19;5015834;28;870;-57
2023/08/06 10:05:53;;;;;;;;;;;;;;;35.59;40.21;98163.94;5016059;28;827;-58
2023/08/06 10:08:20;;;;;;;;;;;;;;;35.28;40.36;98169.78;5014467;28;1346;-59
2023/08/06 10:10:47;;;;;;;;;;;;;;;34.73;41.23;98161.75;5015814;28;818;-57
2023/08/06 10:13:15;;;;;;;;;;;;;;;34.50;41.97;98165.19;5015603;28;2029;-57
2023/08/06 10:15:42;;;;;;;;;;;;;;;34.38;41.54;98163.56;5015579;28;822;-58
2023/08/06 10:18:09;;;;;;;;;;;;;;;34.10;42.03;98140.09;5015326;28;866;-59
2023/08/06 10:20:36;;;;;;;;;;;;;;;33.96;42.47;98152.00;5015616;28;830;-58
2023/08/06 10:23:07;;;;;;;;;;;;;;;33.61;42.90;98168.03;5015356;28;862;-58
2023/08/06 10:25:39;;;;;;;;;;;;;;;32.69;46.44;98173.25;5015235;28;900;-58
2023/08/06 10:28:10;;;;;;;;;;;;;;;31.25;51.96;98173.16;5015263;28;807;-58
2023/08/06 10:30:45;;;;;;;;;;;;;;;30.33;56.40;98159.63;5015187;28;845;-57
2023/08/06 10:33:11;;;;;;;;;;;;;;;29.75;59.07;98155.94;5015064;28;1939;-57
2023/08/06 10:35:45;;;;;;;;;;;;;;;29.59;60.85;98127.50;5015357;28;921;-57
2023/08/06 10:38:15;;;;;;;;;;;;;;;29.40;62.38;98119.41;5014926;28;894;-57
2023/08/06 10:41:12;;;;;;;;;;;;;;;29.24;63.86;98104.47;5015034;28;831;-57
2023/08/06 10:43:39;;;;;;;;;;;;;;;28.67;67.12;98170.31;5002436;28;1251;-57
2023/08/06 10:46:11;;;;;;;;;;;;;;;27.16;88.60;98295.41;5014875;28;1310;-59
2023/08/06 10:48:57;;;;;;;;;;;;;;;24.92;100.00;98333.28;5014748;28;1462;-63
2023/08/06 10:51:24;;;;;;;;;;;;;;;21.38;100.00;98395.31;5013512;28;1969;-72
2023/08/06 10:57:09;;;;;;;;;;;;;;;18.93;100.00;98372.66;5014759;28;802;-70
2023/08/06 10:59:36;;;;;;;;;;;;;;;18.82;100.00;98303.34;5014484;28;835;-66
2023/08/06 11:02:05;;;;;;;;;;;;;;;18.83;100.00;98307.69;5012980;28;1242;-67
2023/08/06 11:04:32;;;;;;;;;;;;;;;19.04;100.00;98346.81;5012958;28;901;-64
2023/08/06 11:07:00;;;;;;;;;;;;;;;19.22;100.00;98287.63;5014152;28;826;-65
2023/08/06 11:09:27;;;;;;;;;;;;;;;19.50;100.00;98282.22;5014279;28;878;-63
2023/08/06 11:11:53;;;;;;;;;;;;;;;19.95;100.00;98279.66;5013072;28;1902;-63
2023/08/06 11:14:21;;;;;;;;;;;;;;;20.10;100.00;98292.69;5014321;28;827;-62
2023/08/06 11:16:46;;;;;;;;;;;;;;;20.24;100.00;98310.59;5014492;28;838;-64
2023/08/06 11:19:15;;;;;;;;;;;;;;;20.38;100.00;98337.69;5014300;28;847;-64
2023/08/06 11:21:43;;;;;;;;;;;;;;;20.47;100.00;98340.25;5014187;28;815;-65
2023/08/06 11:27:15;;;;;;;;;;;;;;;20.45;100.00;98350.47;5014072;28;650;-67
2023/08/06 11:29:41;;;;;;;;;;;;;;;20.50;100.00;98346.88;5014051;28;901;-69
2023/08/06 11:32:09;;;;;;;;;;;;;;;20.39;100.00;98339.97;5014448;28;1953;-71
2023/08/06 11:34:58;;;;;;;;;;;;;;;;;;;;;
2023/08/06 11:40:37;;;;;;;;;;;;;;;22.18;100.00;98270.09;4954355;29;594;-74
2023/08/06 11:43:05;;;;;;;;;;;;;;;22.81;100.00;98256.44;4952851;29;1360;-72
2023/08/06 11:45:35;;;;;;;;;;;;;;;23.33;100.00;98226.50;4952567;29;1171;-71
2023/08/06 11:48:02;;;;;;;;;;;;;;;23.98;100.00;98236.81;4952943;28;1247;-70
2023/08/06 11:50:30;;;;;;;;;;;;;;;24.25;100.00;98234.13;4953346;29;863;-69
2023/08/06 11:52:59;;;;;;;;;;;;;;;24.54;100.00;98220.38;4953326;29;1919;-67
2023/08/06 11:55:30;;;;;;;;;;;;;;;25.30;100.00;98218.06;4953396;29;990;-66
2023/08/06 11:57:57;;;;;;;;;;;;;;;26.60;100.00;98216.09;4953365;29;819;-65
2023/08/06 12:00:25;;;;;;;;;;;;;;;27.68;100.00;98240.38;4953229;29;852;-63
2023/08/06 12:02:54;;;;;;;;;;;;;;;28.40;100.00;98257.94;4953048;29;934;-62
2023/08/06 12:05:24;;;;;;;;;;;;;;;29.33;100.00;98242.53;4953075;29;950;-62
2023/08/06 12:07:55;;;;;;;;;;;;;;;29.50;100.00;98268.31;4952974;29;989;-61
2023/08/06 12:10:22;;;;;;;;;;;;;;;29.90;100.00;98275.47;4953024;29;883;-61
2023/08/06 12:12:49;;;;;;;;;;;;;;;30.71;100.00;98270.56;4953032;29;1894;-61
2023/08/06 12:15:17;;;;;;;;;;;;;;;31.38;100.00;98269.09;4998086;28;917;-61
2023/08/06 12:17:45;;;;;;;;;;;;;;;31.57;100.00;98271.44;4995696;28;1318;-61
2023/08/06 12:20:12;;;;;;;;;;;;;;;32.03;100.00;98284.47;5013146;28;870;-61
2023/08/06 12:22:39;;;;;;;;;;;;;;;32.29;100.00;98289.50;5013110;28;842;-61
2023/08/06 12:25:11;;;;;;;;;;;;;;;32.40;100.00;98282.50;5012974;28;901;-61
2023/08/06 12:27:39;;;;;;;;;;;;;;;32.45;100.00;98292.16;5013313;28;822;-62
2023/08/06 12:30:06;;;;;;;;;;;;;;;31.84;100.00;98274.38;4995372;28;1198;-62
2023/08/06 12:32:34;;;;;;;;;;;;;;;31.87;100.00;98298.91;5013091;28;1957;-61
2023/08/06 12:35:01;;;;;;;;;;;;;;;32.03;100.00;98296.69;5012959;28;874;-62
2023/08/06 12:37:28;;;;;;;;;;;;;;;31.81;100.00;98318.38;5012892;28;905;-63
2023/08/06 12:39:55;;;;;;;;;;;;;;;31.62;100.00;98333.25;5012841;28;854;-64
2023/08/06 12:42:22;;;;;;;;;;;;;;;31.64;100.00;98330.53;5012686;28;843;-62
2023/08/06 12:44:52;;;;;;;;;;;;;;;31.51;100.00;98325.91;5012900;28;811;-61
2023/08/06 12:47:19;;;;;;;;;;;;;;;31.69;100.00;98341.00;5012944;28;885;-62
2023/08/06 12:49:46;;;;;;;;;;;;;;;31.39;100.00;98339.13;5012910;28;955;-61
2023/08/06 12:52:15;;;;;;;;;;;;;;;31.53;100.00;98328.94;5012453;28;1981;-63
2023/08/06 12:54:42;;;;;;;;;;;;;;;32.02;100.00;98320.13;5012520;28;831;-61
2023/08/06 12:57:08;;;;;;;;;;;;;;;32.51;100.00;98321.25;5012540;28;881;-62
2023/08/06 12:59:39;;;;;;;;;;;;;;;32.52;100.00;98322.75;5012452;28;803;-61
2023/08/06 13:02:06;;;;;;;;;;;;;;;32.21;100.00;98320.28;5012428;28;929;-61
2023/08/06 13:04:34;;;;;;;;;;;;;;;32.10;100.00;98310.09;5012414;28;815;-61
2023/08/06 13:07:00;;;;;;;;;;;;;;;32.53;100.00;98304.28;5012477;28;870;-61
2023/08/06 13:09:27;;;;;;;;;;;;;;;32.88;100.00;98304.16;5012444;28;813;-61
2023/08/06 13:11:54;;;;;;;;;;;;;;;33.24;100.00;98305.53;5012456;28;1981;-62
2023/08/06 13:14:21;;;;;;;;;;;;;;;33.39;100.00;98311.00;5012305;28;874;-62
2023/08/06 13:16:48;;;;;;;;;;;;;;;33.18;100.00;98307.94;5012204;28;826;-61
2023/08/06 13:19:15;;;;;;;;;;;;;;;33.07;100.00;98300.66;5012322;28;858;-61
2023/08/06 13:21:42;;;;;;;;;;;;;;;33.40;100.00;98301.09;5012158;28;866;-61
2023/08/06 13:36:20;;;;;;;;;;;;;;;31.95;100.00;98279.59;5031404;28;794;-62
2023/08/06 13:38:47;;;;;;;;;;;;;;;33.02;100.00;98287.38;5031995;28;917;-61
2023/08/06 13:41:14;;;;;;;;;;;;;;;34.05;100.00;98293.03;5031880;28;838;-62
2023/08/06 13:43:42;;;;;;;;;;;;;;;34.39;100.00;98294.84;5031632;28;889;-61
2023/08/06 13:46:14;;;;;;;;;;;;;;;33.88;100.00;98319.72;5031788;28;865;-61
2023/08/06 13:48:42;;;;;;;;;;;;;;;33.96;99.89;98303.91;5031406;28;1241;-61
2023/08/06 13:51:10;;;;;;;;;;;;;;;34.58;100.00;98297.66;5030301;28;1971;-60
2023/08/06 13:53:38;;;;;;;;;;;;;;;34.63;97.37;98300.84;5031578;28;850;-60